KALW

Walla Walla Regional Airport

Walla Walla, Washington, USA
METAR KALW 251853Z VRB05KT 10SM CLR 21/02 A3026 RMK AO2 SLP247 T02110017 $
Observed Flight Rules
Sep-25 @ 18:53 UTC (29 minutes ago) Visual Flight Rules
Wind Visibility Clouds
Variable at 5 knots 10 miles
  • Clear skies
Temperatures Readings
Current 21°C / 70°F
Dewpoint 2°C / 36°F
Humidity 29%
Altimeter 30.26" Hg
Pressure 1024.7 hPa
Elevation 363
METAR KALW 251853Z VRB05KT 10SM CLR 21/02 A3026 RMK AO2 SLP247 T02110017 $
Observed Flight Rules
Sep-25 @ 18:53 UTC
(29 minutes ago)
VFR
Wind Visibility
Variable at 5 knots 10 miles
Clouds
  • Clear skies
Temperature Dewpoint
21°C / 70°F 2°C / 36°F
Humidity Altimeter Pressure
29% 30.26" Hg 1024.7 hPa